sensor_id;sensor_type;location;lat;lon;timestamp;pressure;altitude;pressure_sealevel;temperature;humidity
80640;BME280;69992;60.170;24.692;2023-12-22T00:00:30;97345.31;;;-7.40;33.63
80640;BME280;69992;60.170;24.692;2023-12-22T00:02:55;97345.05;;;-4.38;33.59
80640;BME280;69992;60.170;24.692;2023-12-22T00:05:21;97341.06;;;-4.34;33.61
80640;BME280;69992;60.170;24.692;2023-12-22T00:07:46;97341.78;;;-4.37;33.61
80640;BME280;69992;60.170;24.692;2023-12-22T00:10:12;97334.14;;;-4.38;33.62
80640;BME280;69992;60.170;24.692;2023-12-22T00:12:38;97336.97;;;-6.35;33.65
80640;BME280;69992;60.170;24.692;2023-12-22T00:15:07;97323.38;;;-5.42;33.67
80640;BME280;69992;60.170;24.692;2023-12-22T00:17:28;97330.62;;;-6.40;33.67
80640;BME280;69992;60.170;24.692;2023-12-22T00:19:54;97328.85;;;-4.45;33.68
80640;BME280;69992;60.170;24.692;2023-12-22T00:22:19;97337.71;;;-4.46;33.69
80640;BME280;69992;60.170;24.692;2023-12-22T00:24:45;97333.49;;;-4.43;33.68
80640;BME280;69992;60.170;24.692;2023-12-22T00:27:10;97321.65;;;-4.49;33.69
80640;BME280;69992;60.170;24.692;2023-12-22T00:29:36;97324.13;;;-4.46;33.70
80640;BME280;69992;60.170;24.692;2023-12-22T00:32:02;97312.80;;;-4.44;33.68
80640;BME280;69992;60.170;24.692;2023-12-22T00:34:27;97323.63;;;-4.51;33.70
80640;BME280;69992;60.170;24.692;2023-12-22T00:36:53;97312.51;;;-4.67;33.74
80640;BME280;69992;60.170;24.692;2023-12-22T00:39:18;97314.02;;;-4.84;33.79
80640;BME280;69992;60.170;24.692;2023-12-22T00:41:43;97298.20;;;-4.95;33.82
80640;BME280;69992;60.170;24.692;2023-12-22T00:44:09;97307.71;;;-6.00;33.83
80640;BME280;69992;60.170;24.692;2023-12-22T00:46:35;97304.60;;;-4.93;33.80
80640;BME280;69992;60.170;24.692;2023-12-22T00:49:00;97297.43;;;-5.82;33.77
80640;BME280;69992;60.170;24.692;2023-12-22T00:51:29;97298.35;;;-4.82;33.74
80640;BME280;69992;60.170;24.692;2023-12-22T00:53:52;97294.69;;;-4.85;33.74
80640;BME280;69992;60.170;24.692;2023-12-22T00:56:17;97289.13;;;-5.02;33.80
80640;BME280;69992;60.170;24.692;2023-12-22T00:58:43;97285.43;;;-6.11;33.84
80640;BME280;69992;60.170;24.692;2023-12-22T01:01:09;97282.63;;;-5.23;33.90
80640;BME280;69992;60.170;24.692;2023-12-22T01:03:34;97279.25;;;-5.22;33.85
80640;BME280;69992;60.170;24.692;2023-12-22T01:06:00;97281.59;;;-5.08;33.79
80640;BME280;69992;60.170;24.692;2023-12-22T01:08:25;97278.43;;;-5.05;33.78
80640;BME280;69992;60.170;24.692;2023-12-22T01:10:51;97272.15;;;-5.04;33.77
80640;BME280;69992;60.170;24.692;2023-12-22T01:13:16;97271.66;;;-5.16;33.78
80640;BME280;69992;60.170;24.692;2023-12-22T01:15:41;97266.11;;;-5.18;33.79
80640;BME280;69992;60.170;24.692;2023-12-22T01:18:07;97266.70;;;-5.23;33.80
80640;BME280;69992;60.170;24.692;2023-12-22T01:20:32;97262.05;;;-5.37;33.87
80640;BME280;69992;60.170;24.692;2023-12-22T01:22:57;97262.16;;;-5.54;33.89
80640;BME280;69992;60.170;24.692;2023-12-22T01:25:23;97253.76;;;-5.57;33.90
80640;BME280;69992;60.170;24.692;2023-12-22T01:27:48;97253.37;;;-5.55;33.91
80640;BME280;69992;60.170;24.692;2023-12-22T01:30:14;97248.61;;;-5.57;33.93
80640;BME280;69992;60.170;24.692;2023-12-22T01:32:40;97240.24;;;-5.57;33.89
80640;BME280;69992;60.170;24.692;2023-12-22T01:35:06;97239.67;;;-5.55;33.88
80640;BME280;69992;60.170;24.692;2023-12-22T01:37:31;97232.37;;;-6.54;33.87
80640;BME280;69992;60.170;24.692;2023-12-22T01:39:59;97221.66;;;-5.57;33.84
80640;BME280;69992;60.170;24.692;2023-12-22T01:42:22;97229.22;;;-5.67;33.91
80640;BME280;69992;60.170;24.692;2023-12-22T01:44:48;97232.22;;;-5.75;33.90
80640;BME280;69992;60.170;24.692;2023-12-22T01:47:13;97222.78;;;-5.84;33.92
80640;BME280;69992;60.170;24.692;2023-12-22T01:49:39;97228.32;;;-5.94;34.02
80640;BME280;69992;60.170;24.692;2023-12-22T01:52:05;97214.55;;;-6.06;34.00
80640;BME280;69992;60.170;24.692;2023-12-22T01:54:30;97211.95;;;-6.12;34.01
80640;BME280;69992;60.170;24.692;2023-12-22T01:56:55;97209.53;;;-6.22;34.07
80640;BME280;69992;60.170;24.692;2023-12-22T01:59:21;97205.40;;;-5.20;34.00
80640;BME280;69992;60.170;24.692;2023-12-22T02:01:47;97208.61;;;-6.24;34.03
80640;BME280;69992;60.170;24.692;2023-12-22T02:04:16;97199.40;;;-6.20;33.98
80640;BME280;69992;60.170;24.692;2023-12-22T02:06:37;97199.52;;;-4.20;33.99
80640;BME280;69992;60.170;24.692;2023-12-22T02:09:03;97197.18;;;-5.28;34.02
80640;BME280;69992;60.170;24.692;2023-12-22T02:11:28;97192.90;;;-6.21;33.97
80640;BME280;69992;60.170;24.692;2023-12-22T02:13:54;97193.24;;;-6.23;33.98
80640;BME280;69992;60.170;24.692;2023-12-22T02:16:22;97186.41;;;-6.27;33.96
80640;BME280;69992;60.170;24.692;2023-12-22T02:18:47;97190.78;;;-6.27;33.95
80640;BME280;69992;60.170;24.692;2023-12-22T02:21:10;97190.59;;;-6.25;33.98
80640;BME280;69992;60.170;24.692;2023-12-22T02:23:35;97188.95;;;-5.33;33.96
80640;BME280;69992;60.170;24.692;2023-12-22T02:26:06;97190.83;;;-6.27;33.92
80640;BME280;69992;60.170;24.692;2023-12-22T02:28:37;97187.47;;;-6.26;33.91
80640;BME280;69992;60.170;24.692;2023-12-22T02:30:56;97182.58;;;-6.22;33.92
80640;BME280;69992;60.170;24.692;2023-12-22T02:33:18;97180.25;;;-5.20;33.89
80640;BME280;69992;60.170;24.692;2023-12-22T02:35:43;97178.78;;;-5.28;33.94
80640;BME280;69992;60.170;24.692;2023-12-22T02:38:08;97175.51;;;-5.33;33.91
80640;BME280;69992;60.170;24.692;2023-12-22T02:40:33;97179.18;;;-6.28;33.89
80640;BME280;69992;60.170;24.692;2023-12-22T02:42:59;97173.45;;;-5.20;33.86
80640;BME280;69992;60.170;24.692;2023-12-22T02:45:24;97168.86;;;-6.12;33.85
80640;BME280;69992;60.170;24.692;2023-12-22T02:47:50;97165.15;;;-6.11;33.83
80640;BME280;69992;60.170;24.692;2023-12-22T02:50:16;97162.21;;;-6.15;33.83
80640;BME280;69992;60.170;24.692;2023-12-22T02:52:40;97156.80;;;-5.23;33.91
80640;BME280;69992;60.170;24.692;2023-12-22T02:55:06;97160.03;;;-6.40;33.98
80640;BME280;69992;60.170;24.692;2023-12-22T02:57:31;97158.41;;;-6.53;34.01
80640;BME280;69992;60.170;24.692;2023-12-22T02:59:58;97157.64;;;-6.58;34.02
80640;BME280;69992;60.170;24.692;2023-12-22T03:02:23;97162.10;;;-5.67;34.03
80640;BME280;69992;60.170;24.692;2023-12-22T03:04:49;97152.56;;;-5.62;34.04
80640;BME280;69992;60.170;24.692;2023-12-22T03:07:14;97160.12;;;-6.62;34.05
80640;BME280;69992;60.170;24.692;2023-12-22T03:09:39;97151.68;;;-6.52;33.97
80640;BME280;69992;60.170;24.692;2023-12-22T03:12:06;97145.21;;;-6.50;33.97
80640;BME280;69992;60.170;24.692;2023-12-22T03:14:30;97143.38;;;-6.44;33.92
80640;BME280;69992;60.170;24.692;2023-12-22T03:16:56;97136.76;;;-5.55;33.97
80640;BME280;69992;60.170;24.692;2023-12-22T03:19:21;97133.64;;;-4.52;33.92
80640;BME280;69992;60.170;24.692;2023-12-22T03:21:46;97122.27;;;-6.43;33.95
80640;BME280;69992;60.170;24.692;2023-12-22T03:24:12;97121.66;;;-6.41;33.92
80640;BME280;69992;60.170;24.692;2023-12-22T03:26:37;97119.62;;;-6.50;33.92
80640;BME280;69992;60.170;24.692;2023-12-22T03:29:02;97118.61;;;-6.54;33.96
80640;BME280;69992;60.170;24.692;2023-12-22T03:31:28;97116.64;;;-6.49;33.91
80640;BME280;69992;60.170;24.692;2023-12-22T03:33:53;97104.09;;;-5.51;33.89
80640;BME280;69992;60.170;24.692;2023-12-22T03:36:19;97103.13;;;-6.46;33.88
80640;BME280;69992;60.170;24.692;2023-12-22T03:38:44;97117.14;;;-6.50;33.95
80640;BME280;69992;60.170;24.692;2023-12-22T03:41:10;97110.87;;;-5.60;33.93
80640;BME280;69992;60.170;24.692;2023-12-22T03:43:35;97111.91;;;-5.56;33.92
80640;BME280;69992;60.170;24.692;2023-12-22T03:46:01;97108.80;;;-6.61;33.96
80640;BME280;69992;60.170;24.692;2023-12-22T03:48:26;97115.00;;;-4.56;33.92
80640;BME280;69992;60.170;24.692;2023-12-22T03:50:51;97111.10;;;-5.53;33.92
80640;BME280;69992;60.170;24.692;2023-12-22T03:53:16;97113.69;;;-5.60;33.95
80640;BME280;69992;60.170;24.692;2023-12-22T03:55:45;97106.52;;;-5.61;33.93
80640;BME280;69992;60.170;24.692;2023-12-22T03:58:07;97104.07;;;-6.51;33.89
80640;BME280;69992;60.170;24.692;2023-12-22T04:00:33;97106.06;;;-6.46;33.86
80640;BME280;69992;60.170;24.692;2023-12-22T04:02:59;97109.35;;;-5.57;33.90
80640;BME280;69992;60.170;24.692;2023-12-22T04:05:24;97103.79;;;-6.63;33.93
80640;BME280;69992;60.170;24.692;2023-12-22T04:07:49;97098.02;;;-6.64;33.91
80640;BME280;69992;60.170;24.692;2023-12-22T04:10:16;97107.13;;;-6.67;33.94
80640;BME280;69992;60.170;24.692;2023-12-22T04:12:40;97107.32;;;-5.69;33.92
80640;BME280;69992;60.170;24.692;2023-12-22T04:15:07;97105.80;;;-6.57;33.89
80640;BME280;69992;60.170;24.692;2023-12-22T04:17:30;97094.62;;;-6.51;33.88
80640;BME280;69992;60.170;24.692;2023-12-22T04:19:56;97091.87;;;-6.49;33.86
80640;BME280;69992;60.170;24.692;2023-12-22T04:22:21;97101.62;;;-5.46;33.86
80640;BME280;69992;60.170;24.692;2023-12-22T04:24:47;97090.09;;;-5.56;33.92
80640;BME280;69992;60.170;24.692;2023-12-22T04:27:12;97092.23;;;-5.63;33.92
80640;BME280;69992;60.170;24.692;2023-12-22T04:29:38;97088.97;;;-5.62;33.93
80640;BME280;69992;60.170;24.692;2023-12-22T04:32:06;97081.31;;;-6.57;33.95
80640;BME280;69992;60.170;24.692;2023-12-22T04:34:29;97084.53;;;-5.65;33.93
80640;BME280;69992;60.170;24.692;2023-12-22T04:36:54;97078.89;;;-5.67;33.94
80640;BME280;69992;60.170;24.692;2023-12-22T04:39:20;97069.62;;;-5.74;33.93
80640;BME280;69992;60.170;24.692;2023-12-22T04:41:45;97073.74;;;-5.78;33.99
80640;BME280;69992;60.170;24.692;2023-12-22T04:44:11;97063.07;;;-4.92;34.07
80640;BME280;69992;60.170;24.692;2023-12-22T04:46:35;97071.80;;;-6.94;34.12
80640;BME280;69992;60.170;24.692;2023-12-22T04:49:01;97067.29;;;-6.01;34.09
80640;BME280;69992;60.170;24.692;2023-12-22T04:51:26;97066.39;;;-6.01;34.10
80640;BME280;69992;60.170;24.692;2023-12-22T04:53:52;97066.32;;;-6.06;34.13
80640;BME280;69992;60.170;24.692;2023-12-22T04:56:17;97059.04;;;-5.97;34.10
80640;BME280;69992;60.170;24.692;2023-12-22T04:58:43;97064.62;;;-4.97;34.08
80640;BME280;69992;60.170;24.692;2023-12-22T05:01:08;97063.12;;;-4.96;34.03
80640;BME280;69992;60.170;24.692;2023-12-22T05:03:34;97056.91;;;-5.95;34.12
80640;BME280;69992;60.170;24.692;2023-12-22T05:05:59;97051.73;;;-6.04;34.09
80640;BME280;69992;60.170;24.692;2023-12-22T05:08:25;97059.35;;;-6.09;34.15
80640;BME280;69992;60.170;24.692;2023-12-22T05:10:50;97055.30;;;-7.17;34.23
80640;BME280;69992;60.170;24.692;2023-12-22T05:13:16;97057.73;;;-5.25;34.21
80640;BME280;69992;60.170;24.692;2023-12-22T05:15:41;97050.47;;;-6.20;34.14
80640;BME280;69992;60.170;24.692;2023-12-22T05:18:09;97053.09;;;-6.17;34.13
80640;BME280;69992;60.170;24.692;2023-12-22T05:20:32;97052.76;;;-6.06;34.06
80640;BME280;69992;60.170;24.692;2023-12-22T05:22:58;97043.53;;;-5.95;33.99
80640;BME280;69992;60.170;24.692;2023-12-22T05:25:23;97052.99;;;-5.99;34.04
80640;BME280;69992;60.170;24.692;2023-12-22T05:27:49;97052.08;;;-4.97;34.08
80640;BME280;69992;60.170;24.692;2023-12-22T05:30:14;97044.52;;;-6.95;34.05
80640;BME280;69992;60.170;24.692;2023-12-22T05:32:39;97041.51;;;-6.04;34.07
80640;BME280;69992;60.170;24.692;2023-12-22T05:35:05;97036.34;;;-5.01;34.02
80640;BME280;69992;60.170;24.692;2023-12-22T05:37:30;97036.53;;;-5.96;34.01
80640;BME280;69992;60.170;24.692;2023-12-22T05:39:55;97042.69;;;-5.89;33.99
80640;BME280;69992;60.170;24.692;2023-12-22T05:42:24;97035.83;;;-6.89;33.97
80640;BME280;69992;60.170;24.692;2023-12-22T05:44:46;97028.21;;;-4.96;33.97
80640;BME280;69992;60.170;24.692;2023-12-22T05:47:12;97034.88;;;-6.93;33.99
80640;BME280;69992;60.170;24.692;2023-12-22T05:49:39;97031.44;;;-5.02;34.00
80640;BME280;69992;60.170;24.692;2023-12-22T05:52:03;97033.29;;;-6.94;34.00
80640;BME280;69992;60.170;24.692;2023-12-22T05:54:28;97030.10;;;-6.95;34.01
80640;BME280;69992;60.170;24.692;2023-12-22T05:56:54;97028.49;;;-5.94;33.99
80640;BME280;69992;60.170;24.692;2023-12-22T05:59:19;97024.80;;;-4.92;33.96
80640;BME280;69992;60.170;24.692;2023-12-22T06:01:44;97030.04;;;-4.95;34.05
80640;BME280;69992;60.170;24.692;2023-12-22T06:04:09;97026.80;;;-5.15;34.17
80640;BME280;69992;60.170;24.692;2023-12-22T06:06:36;97030.52;;;-6.24;34.17
80640;BME280;69992;60.170;24.692;2023-12-22T06:09:00;97033.50;;;-5.26;34.21
80640;BME280;69992;60.170;24.692;2023-12-22T06:11:26;97033.25;;;-6.33;34.21
80640;BME280;69992;60.170;24.692;2023-12-22T06:13:51;97039.50;;;-6.40;34.25
80640;BME280;69992;60.170;24.692;2023-12-22T06:16:17;97022.53;;;-6.42;34.30
80640;BME280;69992;60.170;24.692;2023-12-22T06:18:42;97042.31;;;-5.44;34.26
80640;BME280;69992;60.170;24.692;2023-12-22T06:21:09;97042.40;;;-5.37;34.32
80640;BME280;69992;60.170;24.692;2023-12-22T06:23:33;97039.45;;;-6.34;34.23
80640;BME280;69992;60.170;24.692;2023-12-22T06:25:59;97034.90;;;-5.25;34.15
80640;BME280;69992;60.170;24.692;2023-12-22T06:28:24;97039.48;;;-6.14;34.21
80640;BME280;69992;60.170;24.692;2023-12-22T06:30:49;97051.11;;;-6.10;34.14
80640;BME280;69992;60.170;24.692;2023-12-22T06:33:14;97038.00;;;-7.04;34.15
80640;BME280;69992;60.170;24.692;2023-12-22T06:35:43;97042.39;;;-5.03;34.09
80640;BME280;69992;60.170;24.692;2023-12-22T06:38:05;97038.90;;;-6.94;34.14
80640;BME280;69992;60.170;24.692;2023-12-22T06:40:41;97033.28;;;-9.03;34.25
80640;BME280;69992;60.170;24.692;2023-12-22T06:42:56;97040.44;;;-7.01;34.21
80640;BME280;69992;60.170;24.692;2023-12-22T06:45:21;97042.88;;;-7.03;34.13
80640;BME280;69992;60.170;24.692;2023-12-22T06:47:47;97036.59;;;-4.99;34.09
80640;BME280;69992;60.170;24.692;2023-12-22T06:50:13;97035.11;;;-5.84;34.01
80640;BME280;69992;60.170;24.692;2023-12-22T06:52:38;97031.87;;;-5.74;33.99
80640;BME280;69992;60.170;24.692;2023-12-22T06:55:04;97035.93;;;-5.74;34.04
80640;BME280;69992;60.170;24.692;2023-12-22T06:57:29;97032.99;;;-6.76;34.04
80640;BME280;69992;60.170;24.692;2023-12-22T06:59:58;97035.00;;;-5.80;34.03
80640;BME280;69992;60.170;24.692;2023-12-22T07:02:21;97029.84;;;-5.78;34.01
80640;BME280;69992;60.170;24.692;2023-12-22T07:05:02;97032.18;;;-5.68;33.98
80640;BME280;69992;60.170;24.692;2023-12-22T07:07:12;97038.58;;;-6.51;33.93
80640;BME280;69992;60.170;24.692;2023-12-22T07:09:37;97034.02;;;-5.53;33.93
80640;BME280;69992;60.170;24.692;2023-12-22T07:12:03;97032.82;;;-6.61;33.99
80640;BME280;69992;60.170;24.692;2023-12-22T07:14:28;97038.59;;;-6.65;33.98
80640;BME280;69992;60.170;24.692;2023-12-22T07:16:53;97028.30;;;-5.70;34.00
80640;BME280;69992;60.170;24.692;2023-12-22T07:19:18;97028.06;;;-5.79;34.03
80640;BME280;69992;60.170;24.692;2023-12-22T07:21:44;97030.68;;;-5.80;34.04
80640;BME280;69992;60.170;24.692;2023-12-22T07:24:09;97027.86;;;-6.82;34.07
80640;BME280;69992;60.170;24.692;2023-12-22T07:26:35;97030.31;;;-6.82;34.08
80640;BME280;69992;60.170;24.692;2023-12-22T07:29:00;97026.91;;;-6.75;34.05
80640;BME280;69992;60.170;24.692;2023-12-22T07:31:26;97026.32;;;-5.66;34.02
80640;BME280;69992;60.170;24.692;2023-12-22T07:33:51;97029.18;;;-5.64;34.02
80640;BME280;69992;60.170;24.692;2023-12-22T07:36:17;97029.93;;;-5.67;34.05
80640;BME280;69992;60.170;24.692;2023-12-22T07:38:42;97024.61;;;-5.69;34.06
80640;BME280;69992;60.170;24.692;2023-12-22T07:41:07;97024.02;;;-6.75;34.12
80640;BME280;69992;60.170;24.692;2023-12-22T07:43:32;97027.20;;;-6.87;34.20
80640;BME280;69992;60.170;24.692;2023-12-22T07:45:58;97020.99;;;-5.89;34.15
80640;BME280;69992;60.170;24.692;2023-12-22T07:48:23;97022.28;;;-4.82;34.11
80640;BME280;69992;60.170;24.692;2023-12-22T07:50:49;97020.68;;;-6.72;34.09
80640;BME280;69992;60.170;24.692;2023-12-22T07:53:14;97021.99;;;-6.72;34.11
80640;BME280;69992;60.170;24.692;2023-12-22T07:55:40;97027.88;;;-5.77;34.13
80640;BME280;69992;60.170;24.692;2023-12-22T07:58:05;97034.50;;;-6.72;34.11
80640;BME280;69992;60.170;24.692;2023-12-22T08:00:31;97026.53;;;-6.82;34.19
80640;BME280;69992;60.170;24.692;2023-12-22T08:02:55;97020.38;;;-6.74;34.14
80640;BME280;69992;60.170;24.692;2023-12-22T08:05:21;97024.25;;;-4.65;34.11
80640;BME280;69992;60.170;24.692;2023-12-22T08:07:46;97026.48;;;-6.54;34.07
80640;BME280;69992;60.170;24.692;2023-12-22T08:10:12;97024.30;;;-5.51;34.06
80640;BME280;69992;60.170;24.692;2023-12-22T08:12:37;97029.46;;;-4.48;34.02
80640;BME280;69992;60.170;24.692;2023-12-22T08:15:04;97022.58;;;-6.36;33.98
80640;BME280;69992;60.170;24.692;2023-12-22T08:17:28;97027.42;;;-6.39;34.05
80640;BME280;69992;60.170;24.692;2023-12-22T08:19:54;97021.18;;;-6.44;34.10
80640;BME280;69992;60.170;24.692;2023-12-22T08:22:19;97027.64;;;-6.51;34.11
80640;BME280;69992;60.170;24.692;2023-12-22T08:24:45;97026.77;;;-4.56;34.14
80640;BME280;69992;60.170;24.692;2023-12-22T08:27:10;97021.93;;;-4.50;34.09
80640;BME280;69992;60.170;24.692;2023-12-22T08:29:39;97021.22;;;-6.39;34.05
80640;BME280;69992;60.170;24.692;2023-12-22T08:32:01;97024.30;;;-5.38;34.03
80640;BME280;69992;60.170;24.692;2023-12-22T08:34:26;97027.72;;;-6.33;34.02
80640;BME280;69992;60.170;24.692;2023-12-22T08:36:52;97026.42;;;-6.24;34.03
80640;BME280;69992;60.170;24.692;2023-12-22T08:39:17;97023.13;;;-6.24;34.00
80640;BME280;69992;60.170;24.692;2023-12-22T08:41:44;97019.27;;;-6.24;33.99
80640;BME280;69992;60.170;24.692;2023-12-22T08:44:08;97015.68;;;-6.14;33.96
80640;BME280;69992;60.170;24.692;2023-12-22T08:46:34;97019.68;;;-6.25;33.99
80640;BME280;69992;60.170;24.692;2023-12-22T08:49:00;97018.29;;;-6.26;34.01
80640;BME280;69992;60.170;24.692;2023-12-22T08:51:25;97013.02;;;-5.28;33.99
80640;BME280;69992;60.170;24.692;2023-12-22T08:53:50;97015.44;;;-4.35;34.02
80640;BME280;69992;60.170;24.692;2023-12-22T08:56:16;97018.66;;;-6.22;34.01
80640;BME280;69992;60.170;24.692;2023-12-22T08:58:40;97025.25;;;-6.18;34.01
80640;BME280;69992;60.170;24.692;2023-12-22T09:01:06;97014.98;;;-5.19;34.02
80640;BME280;69992;60.170;24.692;2023-12-22T09:03:34;97016.32;;;-6.17;34.01
80640;BME280;69992;60.170;24.692;2023-12-22T09:05:57;97014.57;;;-6.09;33.97
80640;BME280;69992;60.170;24.692;2023-12-22T09:08:22;97008.87;;;-6.06;33.98
80640;BME280;69992;60.170;24.692;2023-12-22T09:10:48;97010.36;;;-5.98;33.95
80640;BME280;69992;60.170;24.692;2023-12-22T09:13:13;97005.34;;;-6.00;33.96
80640;BME280;69992;60.170;24.692;2023-12-22T09:15:39;97004.78;;;-5.03;33.97
80640;BME280;69992;60.170;24.692;2023-12-22T09:18:04;97005.80;;;-6.04;34.04
80640;BME280;69992;60.170;24.692;2023-12-22T09:20:29;97009.40;;;-6.07;34.02
80640;BME280;69992;60.170;24.692;2023-12-22T09:22:55;97002.57;;;-5.94;33.97
80640;BME280;69992;60.170;24.692;2023-12-22T09:25:20;97004.49;;;-5.82;33.93
80640;BME280;69992;60.170;24.692;2023-12-22T09:27:45;97001.37;;;-4.83;33.93
80640;BME280;69992;60.170;24.692;2023-12-22T09:30:12;97002.17;;;-4.82;33.93
80640;BME280;69992;60.170;24.692;2023-12-22T09:32:36;96993.83;;;-5.79;33.94
80640;BME280;69992;60.170;24.692;2023-12-22T09:35:02;96996.94;;;-5.92;33.97
80640;BME280;69992;60.170;24.692;2023-12-22T09:37:27;96997.67;;;-5.98;33.99
80640;BME280;69992;60.170;24.692;2023-12-22T09:39:53;96993.48;;;-6.02;34.05
80640;BME280;69992;60.170;24.692;2023-12-22T09:42:18;96995.08;;;-5.11;34.06
80640;BME280;69992;60.170;24.692;2023-12-22T09:44:43;96992.79;;;-6.10;34.10
80640;BME280;69992;60.170;24.692;2023-12-22T09:47:10;96995.82;;;-6.09;34.09
80640;BME280;69992;60.170;24.692;2023-12-22T09:49:35;96995.24;;;-5.03;34.04
80640;BME280;69992;60.170;24.692;2023-12-22T09:52:01;96997.90;;;-5.93;34.02
80640;BME280;69992;60.170;24.692;2023-12-22T09:54:25;96997.07;;;-5.93;34.00
80640;BME280;69992;60.170;24.692;2023-12-22T09:56:51;96984.27;;;-5.86;34.01
80640;BME280;69992;60.170;24.692;2023-12-22T09:59:17;96986.76;;;-5.83;33.97
80640;BME280;69992;60.170;24.692;2023-12-22T10:01:43;96988.23;;;-5.69;33.93
80640;BME280;69992;60.170;24.692;2023-12-22T10:04:07;96990.45;;;-5.63;33.90
80640;BME280;69992;60.170;24.692;2023-12-22T10:06:32;96990.46;;;-5.60;33.89
80640;BME280;69992;60.170;24.692;2023-12-22T10:08:58;96988.88;;;-5.58;33.88
80640;BME280;69992;60.170;24.692;2023-12-22T10:11:27;96986.12;;;-5.46;33.85
80640;BME280;69992;60.170;24.692;2023-12-22T10:13:50;96989.73;;;-5.40;33.81
80640;BME280;69992;60.170;24.692;2023-12-22T10:16:14;96989.15;;;-5.48;33.86
80640;BME280;69992;60.170;24.692;2023-12-22T10:18:39;96988.62;;;-5.55;33.88
80640;BME280;69992;60.170;24.692;2023-12-22T10:21:04;96991.00;;;-5.49;33.87
80640;BME280;69992;60.170;24.692;2023-12-22T10:23:30;96992.42;;;-5.54;33.89
80640;BME280;69992;60.170;24.692;2023-12-22T10:25:57;96989.73;;;-5.61;33.93
80640;BME280;69992;60.170;24.692;2023-12-22T10:28:21;96987.67;;;-5.63;33.94
80640;BME280;69992;60.170;24.692;2023-12-22T10:30:46;96989.34;;;-6.76;33.62
80640;BME280;69992;60.170;24.692;2023-12-22T10:33:12;96994.72;;;-4.46;33.34
80640;BME280;69992;60.170;24.692;2023-12-22T10:35:37;96990.28;;;-4.79;33.52
80640;BME280;69992;60.170;24.692;2023-12-22T10:38:04;96994.50;;;-4.97;33.64
80640;BME280;69992;60.170;24.692;2023-12-22T10:40:27;96993.01;;;-5.11;33.73
80640;BME280;69992;60.170;24.692;2023-12-22T10:42:53;96991.91;;;-5.97;33.72
80640;BME280;69992;60.170;24.692;2023-12-22T10:45:18;96988.53;;;-5.74;33.63
80640;BME280;69992;60.170;24.692;2023-12-22T10:47:44;96984.74;;;-4.78;33.65
80640;BME280;69992;60.170;24.692;2023-12-22T10:50:13;96987.76;;;-5.67;33.66
80640;BME280;69992;60.170;24.692;2023-12-22T10:52:35;96985.17;;;-4.75;33.67
80640;BME280;69992;60.170;24.692;2023-12-22T10:55:00;96985.09;;;-4.84;33.71
80640;BME280;69992;60.170;24.692;2023-12-22T10:57:26;96988.75;;;-6.95;33.79
80640;BME280;69992;60.170;24.692;2023-12-22T10:59:51;96993.95;;;-5.00;33.80
80640;BME280;69992;60.170;24.692;2023-12-22T11:02:18;96993.20;;;-5.03;33.81
80640;BME280;69992;60.170;24.692;2023-12-22T11:04:47;96993.37;;;-5.06;33.83
80640;BME280;69992;60.170;24.692;2023-12-22T11:07:09;96992.20;;;-5.09;33.82
80640;BME280;69992;60.170;24.692;2023-12-22T11:09:35;96995.42;;;-5.07;33.81
80640;BME280;69992;60.170;24.692;2023-12-22T11:11:59;96994.67;;;-4.98;33.78
80640;BME280;69992;60.170;24.692;2023-12-22T11:14:24;96992.51;;;-4.94;33.77
80640;BME280;69992;60.170;24.692;2023-12-22T11:16:49;96994.24;;;-5.92;33.77
80640;BME280;69992;60.170;24.692;2023-12-22T11:19:15;96990.98;;;-4.97;33.80
80640;BME280;69992;60.170;24.692;2023-12-22T11:21:41;96994.71;;;-4.97;33.79
80640;BME280;69992;60.170;24.692;2023-12-22T11:24:07;96992.58;;;-4.01;33.81
80640;BME280;69992;60.170;24.692;2023-12-22T11:26:32;96989.95;;;-5.02;33.83
80640;BME280;69992;60.170;24.692;2023-12-22T11:28:58;96989.68;;;-5.06;33.85
80640;BME280;69992;60.170;24.692;2023-12-22T11:31:23;96993.13;;;-5.97;33.83
80640;BME280;69992;60.170;24.692;2023-12-22T11:33:49;96993.02;;;-5.05;33.86
80640;BME280;69992;60.170;24.692;2023-12-22T11:36:14;96991.93;;;-5.18;33.91
80640;BME280;69992;60.170;24.692;2023-12-22T11:38:40;96995.06;;;-5.19;33.91
80640;BME280;69992;60.170;24.692;2023-12-22T11:41:04;96990.87;;;-5.19;33.92
80640;BME280;69992;60.170;24.692;2023-12-22T11:43:40;96990.72;;;-7.16;33.92
80640;BME280;69992;60.170;24.692;2023-12-22T11:45:55;96992.01;;;-5.09;33.89
80640;BME280;69992;60.170;24.692;2023-12-22T11:48:20;96988.15;;;-5.09;33.87
80640;BME280;69992;60.170;24.692;2023-12-22T11:50:45;96992.25;;;-6.07;33.88
80640;BME280;69992;60.170;24.692;2023-12-22T11:53:20;96990.45;;;-5.10;33.90
80640;BME280;69992;60.170;24.692;2023-12-22T12:00:38;97002.27;;;-5.03;33.84
80640;BME280;69992;60.170;24.692;2023-12-22T12:02:54;97000.51;;;-4.89;33.79
80640;BME280;69992;60.170;24.692;2023-12-22T12:05:18;97001.34;;;-5.88;33.79
80640;BME280;69992;60.170;24.692;2023-12-22T12:07:44;96999.09;;;-4.86;33.80
80640;BME280;69992;60.170;24.692;2023-12-22T12:10:13;96998.04;;;-4.86;33.81
80640;BME280;69992;60.170;24.692;2023-12-22T12:12:38;96996.71;;;-6.81;33.81
80640;BME280;69992;60.170;24.692;2023-12-22T12:15:06;96992.81;;;-4.87;33.81
80640;BME280;69992;60.170;24.692;2023-12-22T12:17:25;96987.47;;;-5.90;33.84
80640;BME280;69992;60.170;24.692;2023-12-22T12:19:51;96988.71;;;-5.89;33.84
80640;BME280;69992;60.170;24.692;2023-12-22T12:22:17;96989.65;;;-5.83;33.82
80640;BME280;69992;60.170;24.692;2023-12-22T12:24:44;96986.16;;;-4.79;33.80
80640;BME280;69992;60.170;24.692;2023-12-22T12:27:07;96979.51;;;-4.77;33.80
80640;BME280;69992;60.170;24.692;2023-12-22T12:29:33;96979.98;;;-4.65;33.77
80640;BME280;69992;60.170;24.692;2023-12-22T12:32:03;96985.83;;;-4.58;33.74
80640;BME280;69992;60.170;24.692;2023-12-22T12:34:23;96987.52;;;-4.61;33.76
80640;BME280;69992;60.170;24.692;2023-12-22T12:36:49;96987.19;;;-4.61;33.76
80640;BME280;69992;60.170;24.692;2023-12-22T12:39:15;96991.23;;;-4.62;33.76
80640;BME280;69992;60.170;24.692;2023-12-22T12:41:41;96997.63;;;-5.53;33.75
80640;BME280;69992;60.170;24.692;2023-12-22T12:44:06;96997.19;;;-4.42;33.72